createdAt,value
2024-04-23T00:02:40.046Z,91.30
2024-04-23T00:08:01.673Z,86.20
2024-04-23T00:13:29.178Z,82.10
2024-04-23T00:18:56.398Z,79.10
2024-04-23T00:24:17.758Z,83.90
2024-04-23T00:29:27.998Z,76.70
2024-04-23T00:34:47.350Z,92.70
2024-04-23T00:40:07.979Z,82.00
2024-04-23T00:45:38.938Z,85.20
2024-04-23T00:50:52.316Z,98.20
2024-04-23T00:56:21.232Z,94.80
2024-04-23T01:01:49.712Z,88.30
2024-04-23T01:07:16.603Z,80.30
2024-04-23T01:12:28.737Z,95.00
2024-04-23T01:17:41.780Z,82.00
2024-04-23T01:23:16.052Z,79.40
2024-04-23T01:28:33.644Z,78.70
2024-04-23T01:38:55.001Z,83.40
2024-04-23T01:44:13.439Z,91.90
2024-04-23T01:49:26.178Z,91.10
2024-04-23T01:54:43.935Z,84.30
2024-04-23T02:00:00.479Z,86.90
2024-04-23T02:05:14.906Z,84.90
2024-04-23T02:10:22.280Z,79.20
2024-04-23T02:15:32.651Z,85.70
2024-04-23T02:20:59.668Z,82.20
2024-04-23T02:26:20.122Z,91.50
2024-04-23T02:31:27.265Z,89.00
2024-04-23T02:36:47.794Z,94.30
2024-04-23T02:42:05.808Z,88.30
2024-04-23T02:47:25.864Z,93.30
2024-04-23T02:52:52.896Z,102.30
2024-04-23T02:58:20.264Z,100.70
2024-04-23T03:03:48.007Z,95.30
2024-04-23T03:09:07.914Z,93.90
2024-04-23T03:14:34.867Z,92.40
2024-04-23T03:19:47.533Z,102.70
2024-04-23T03:24:54.484Z,96.40
2024-04-23T03:30:07.489Z,95.40
2024-04-23T03:35:19.904Z,100.80
2024-04-23T03:40:40.765Z,103.30
2024-04-23T03:45:47.623Z,106.80
2024-04-23T03:51:13.745Z,106.10
2024-04-23T03:56:20.665Z,106.60
2024-04-23T04:01:33.194Z,105.60
2024-04-23T04:06:43.450Z,106.30
2024-04-23T04:12:10.369Z,106.50
2024-04-23T04:17:24.334Z,120.40
2024-04-23T04:22:35.935Z,119.40
2024-04-23T04:27:53.861Z,120.40
2024-04-23T04:33:10.149Z,124.40
2024-04-23T04:38:36.292Z,118.20
2024-04-23T04:44:02.954Z,113.20
2024-04-23T04:49:29.986Z,116.50
2024-04-23T04:55:06.665Z,114.60
2024-04-23T05:00:44.075Z,120.80
2024-04-23T05:05:56.863Z,119.90
2024-04-23T05:11:07.040Z,126.50
2024-04-23T05:16:33.125Z,123.30
2024-04-23T05:21:57.534Z,122.90
2024-04-23T05:27:25.029Z,132.00
2024-04-23T05:32:52.247Z,124.40
2024-04-23T05:38:19.953Z,136.80
2024-04-23T05:43:39.941Z,122.40
2024-04-23T05:49:42.189Z,130.20
2024-04-23T05:55:35.648Z,137.40
2024-04-23T06:00:56.258Z,155.60
2024-04-23T06:06:16.461Z,136.50
2024-04-23T06:11:32.319Z,113.80
2024-04-23T06:17:31.501Z,117.10
2024-04-23T06:23:04.761Z,106.70
2024-04-23T06:28:34.424Z,104.20
2024-04-23T06:34:01.701Z,66.10
2024-04-23T06:39:14.178Z,50.90
2024-04-23T06:44:35.323Z,48.40
2024-04-23T06:49:56.364Z,32.80
2024-04-23T06:55:16.629Z,41.50
2024-04-23T07:00:44.082Z,40.50
2024-04-23T07:06:11.464Z,42.80
2024-04-23T07:11:38.738Z,51.10
2024-04-23T07:17:06.703Z,51.60
2024-04-23T07:22:27.337Z,35.10
2024-04-23T07:27:45.418Z,13.80
2024-04-23T07:33:12.785Z,16.00
2024-04-23T07:38:28.315Z,15.40
2024-04-23T07:43:52.451Z,17.50
2024-04-23T07:49:00.286Z,17.20
2024-04-23T07:54:27.467Z,15.40
2024-04-23T07:59:43.357Z,11.70
2024-04-23T08:05:10.911Z,14.10
2024-04-23T08:10:18.709Z,6.30
2024-04-23T08:15:35.506Z,11.10
2024-04-23T08:20:44.863Z,6.80
2024-04-23T08:26:16.484Z,9.10
2024-04-23T08:31:43.939Z,8.80
2024-04-23T08:37:01.474Z,10.50
2024-04-23T08:42:14.391Z,10.20
2024-04-23T08:47:24.929Z,9.80
2024-04-23T08:57:48.359Z,11.30
2024-04-23T09:03:01.124Z,11.20
2024-04-23T09:08:21.771Z,12.80
2024-04-23T09:13:29.627Z,11.70
2024-04-23T09:18:40.152Z,9.20
2024-04-23T09:24:08.291Z,9.80
2024-04-23T09:29:16.811Z,12.20
2024-04-23T09:39:46.010Z,8.90
2024-04-23T09:45:16.420Z,7.10
2024-04-23T09:50:27.866Z,8.50
2024-04-23T09:55:40.452Z,8.40
2024-04-23T10:06:04.674Z,6.80
2024-04-23T10:16:45.653Z,7.00
2024-04-23T10:22:12.735Z,7.10
2024-04-23T10:27:20.662Z,8.80
2024-04-23T10:32:29.337Z,7.50
2024-04-23T10:37:39.882Z,8.00
2024-04-23T10:43:02.367Z,7.90
2024-04-23T10:48:13.085Z,8.10
2024-04-23T10:53:22.605Z,8.20
2024-04-23T10:58:39.062Z,10.10
2024-04-23T11:03:58.705Z,9.50
2024-04-23T11:09:35.459Z,8.10
2024-04-23T11:14:51.378Z,8.00
2024-04-23T11:20:01.149Z,9.40
2024-04-23T11:25:09.652Z,11.60
2024-04-23T11:30:27.468Z,8.60
2024-04-23T11:35:40.607Z,6.80
2024-04-23T11:40:50.841Z,7.80
2024-04-23T11:45:57.564Z,12.30
2024-04-23T11:51:13.400Z,10.80
2024-04-23T11:56:20.088Z,9.10
2024-04-23T12:01:29.271Z,9.70
2024-04-23T12:06:36.274Z,6.50
2024-04-23T12:11:46.849Z,6.80
2024-04-23T12:16:53.935Z,7.70
2024-04-23T12:22:01.096Z,7.60
2024-04-23T12:27:08.097Z,8.20
2024-04-23T12:32:14.910Z,5.80
2024-04-23T12:37:24.980Z,6.30
2024-04-23T12:42:32.015Z,6.20
2024-04-23T12:47:39.235Z,6.90
2024-04-23T12:52:46.910Z,6.20
2024-04-23T12:57:53.626Z,6.30
2024-04-23T13:03:00.422Z,5.80
2024-04-23T13:08:08.210Z,6.60
2024-04-23T13:13:15.447Z,7.90
2024-04-23T13:18:22.445Z,5.80
2024-04-23T13:23:29.484Z,8.50
2024-04-23T13:28:36.467Z,9.70
2024-04-23T13:33:44.155Z,6.90
2024-04-23T13:38:50.802Z,6.60
2024-04-23T13:43:57.613Z,6.70
2024-04-23T13:49:04.529Z,6.70
2024-04-23T13:54:11.301Z,14.60
2024-04-23T13:59:20.509Z,7.80
2024-04-23T14:04:27.298Z,7.30
2024-04-23T14:09:34.113Z,7.00
2024-04-23T14:14:42.781Z,6.70
2024-04-23T14:19:49.376Z,8.50
2024-04-23T14:24:56.593Z,8.30
2024-04-23T14:30:03.663Z,6.20
2024-04-23T14:35:10.805Z,7.10
2024-04-23T14:40:17.700Z,7.80
2024-04-23T14:45:24.403Z,8.50
2024-04-23T14:50:31.776Z,6.90
2024-04-23T14:55:38.780Z,10.10
2024-04-23T15:00:45.735Z,7.20
2024-04-23T15:05:52.432Z,7.30
2024-04-23T15:10:59.697Z,6.40
2024-04-23T15:16:07.636Z,9.40
2024-04-23T15:21:15.933Z,5.70
2024-04-23T15:26:23.209Z,8.30
2024-04-23T15:31:29.891Z,9.00
2024-04-23T15:36:39.650Z,6.60
2024-04-23T15:41:46.373Z,7.10
2024-04-23T15:46:53.214Z,8.60
2024-04-23T15:52:00.365Z,10.30
2024-04-23T15:57:09.144Z,7.70
2024-04-23T16:02:16.367Z,9.20
2024-04-23T16:07:23.208Z,9.00
2024-04-23T16:12:32.985Z,7.50
2024-04-23T16:17:39.804Z,11.60
2024-04-23T16:22:46.627Z,12.20
2024-04-23T16:27:53.674Z,10.80
2024-04-23T16:33:08.140Z,10.80
2024-04-23T16:38:15.560Z,10.40
2024-04-23T16:43:24.789Z,13.50
2024-04-23T16:48:35.380Z,11.90
2024-04-23T16:53:42.665Z,13.10
2024-04-23T16:58:52.020Z,10.50
2024-04-23T17:03:58.767Z,64.60
2024-04-23T17:09:06.438Z,46.60
2024-04-23T17:14:19.345Z,47.70
2024-04-23T17:19:26.320Z,16.80
2024-04-23T17:24:37.922Z,39.40
2024-04-23T17:29:44.874Z,19.50
2024-04-23T17:34:51.878Z,17.60
2024-04-23T17:39:58.858Z,15.00
2024-04-23T17:45:06.375Z,11.60
2024-04-23T17:50:13.155Z,11.30
2024-04-23T17:55:30.552Z,13.90
2024-04-23T18:00:40.425Z,15.50
2024-04-23T18:05:51.175Z,11.40
2024-04-23T18:11:00.922Z,14.60
2024-04-23T18:16:16.783Z,13.30
2024-04-23T18:21:27.961Z,12.50
2024-04-23T18:26:34.950Z,14.70
2024-04-23T18:31:42.645Z,17.60
2024-04-23T18:37:02.277Z,14.30
2024-04-23T18:42:09.848Z,19.70
2024-04-23T18:47:38.892Z,24.20
2024-04-23T18:52:48.583Z,24.50
2024-04-23T18:58:13.420Z,31.70
2024-04-23T19:03:22.834Z,35.40
2024-04-23T19:08:30.012Z,31.40
2024-04-23T19:13:37.029Z,46.60
2024-04-23T19:18:49.926Z,47.60
2024-04-23T19:24:02.369Z,49.90
2024-04-23T19:29:12.006Z,34.70
2024-04-23T19:34:18.926Z,30.70
2024-04-23T19:39:31.885Z,26.80
2024-04-23T19:44:41.791Z,22.40
2024-04-23T19:49:52.412Z,24.30
2024-04-23T19:55:02.246Z,25.80
2024-04-23T20:00:11.377Z,23.70
2024-04-23T20:05:25.993Z,22.40
2024-04-23T20:10:38.595Z,23.90
2024-04-23T20:15:45.619Z,24.50
2024-04-23T20:20:57.022Z,25.90
2024-04-23T20:26:06.856Z,24.30
2024-04-23T20:31:16.212Z,26.10
2024-04-23T20:36:43.196Z,26.20
2024-04-23T20:41:55.489Z,25.40
2024-04-23T20:47:04.710Z,29.60
2024-04-23T20:52:17.182Z,26.70
2024-04-23T20:57:34.133Z,28.50
2024-04-23T21:02:41.215Z,27.90
2024-04-23T21:07:51.418Z,33.90
2024-04-23T21:12:58.908Z,30.00
2024-04-23T21:18:06.445Z,31.90
2024-04-23T21:23:26.446Z,42.30
2024-04-23T21:28:33.079Z,44.70
2024-04-23T21:34:00.064Z,35.40
2024-04-23T21:39:07.009Z,35.40
2024-04-23T21:44:26.594Z,31.80
2024-04-23T21:49:52.226Z,30.90
2024-04-23T21:54:59.049Z,28.10
2024-04-23T22:00:13.139Z,32.20
2024-04-23T22:05:31.741Z,27.90
2024-04-23T22:10:58.860Z,29.30
2024-04-23T22:16:12.790Z,29.10
2024-04-23T22:21:30.736Z,27.90
2024-04-23T22:26:40.655Z,26.30
2024-04-23T22:31:49.922Z,34.90
2024-04-23T22:37:10.529Z,32.00
2024-04-23T22:42:30.088Z,34.50
2024-04-23T22:47:57.201Z,36.90
2024-04-23T22:53:15.567Z,38.70
2024-04-23T22:58:36.630Z,44.60
2024-04-23T23:03:43.511Z,34.80
2024-04-23T23:09:10.646Z,41.60
2024-04-23T23:14:26.890Z,33.20
2024-04-23T23:19:44.071Z,37.00
2024-04-23T23:24:55.509Z,36.40
2024-04-23T23:30:13.931Z,36.10
2024-04-23T23:35:23.556Z,36.40
2024-04-23T23:40:40.273Z,37.50
2024-04-23T23:46:08.362Z,35.20
2024-04-23T23:51:35.289Z,45.10
2024-04-23T23:56:42.050Z,39.30
